createdAt,value
2019-04-20T00:03:44.760Z,3.27
2019-04-20T00:06:13.259Z,3.30
2019-04-20T00:08:44.405Z,3.63
2019-04-20T00:11:20.996Z,3.17
2019-04-20T00:13:57.240Z,3.57
2019-04-20T00:16:16.961Z,3.60
2019-04-20T00:18:51.936Z,3.23
2019-04-20T00:21:42.725Z,3.50
2019-04-20T00:24:18.048Z,3.43
2019-04-20T00:27:10.584Z,3.10
2019-04-20T00:29:29.461Z,3.80
2019-04-20T00:31:58.359Z,3.30
2019-04-20T00:34:24.698Z,3.57
2019-04-20T00:36:49.641Z,4.07
2019-04-20T00:39:21.879Z,3.37
2019-04-20T00:41:58.942Z,2.73
2019-04-20T00:44:28.692Z,3.40
2019-04-20T00:47:08.459Z,3.80
2019-04-20T00:49:41.388Z,3.20
2019-04-20T00:52:24.304Z,3.43
2019-04-20T00:54:28.796Z,3.00
2019-04-20T00:57:11.427Z,3.33
2019-04-20T00:59:51.750Z,2.73
2019-04-20T01:02:16.857Z,3.57
2019-04-20T01:04:56.436Z,3.17
2019-04-20T01:07:24.401Z,2.93
2019-04-20T01:10:04.995Z,3.80
2019-04-20T01:12:38.407Z,3.87
2019-04-20T01:15:11.776Z,3.43
2019-04-20T01:17:41.553Z,3.23
2019-04-20T01:20:12.047Z,3.33
2019-04-20T01:22:50.970Z,3.73
2019-04-20T01:25:18.364Z,3.10
2019-04-20T01:28:05.486Z,2.80
2019-04-20T01:30:25.194Z,3.60
2019-04-20T01:33:00.028Z,2.70
2019-04-20T01:35:35.571Z,3.37
2019-04-20T01:38:16.704Z,3.63
2019-04-20T01:40:23.230Z,3.37
2019-04-20T01:42:53.621Z,4.00
2019-04-20T01:45:29.285Z,2.70
2019-04-20T01:47:57.745Z,3.27
2019-04-20T01:50:30.036Z,2.90
2019-04-20T01:53:10.178Z,3.20
2019-04-20T01:55:48.244Z,3.50
2019-04-20T01:58:30.211Z,3.53
2019-04-20T02:00:45.402Z,3.37
2019-04-20T02:03:38.597Z,3.37
2019-04-20T02:06:12.708Z,3.40
2019-04-20T02:08:39.926Z,3.67
2019-04-20T02:11:18.731Z,4.00
2019-04-20T02:13:48.058Z,2.67
2019-04-20T02:16:22.972Z,2.87
2019-04-20T02:19:06.599Z,3.00
2019-04-20T02:21:34.028Z,3.83
2019-04-20T02:23:53.060Z,3.85
2019-04-20T02:26:19.860Z,3.53
2019-04-20T02:32:06.572Z,3.60
2019-04-20T02:34:33.573Z,3.55
2019-04-20T02:37:19.385Z,3.27
2019-04-20T02:39:46.270Z,3.67
2019-04-20T02:47:19.505Z,3.77
2019-04-20T02:49:50.771Z,2.70
2019-04-20T02:52:24.980Z,3.70
2019-04-20T02:54:47.021Z,4.17
2019-04-20T02:57:24.334Z,3.30
2019-04-20T03:02:13.034Z,4.07
2019-04-20T03:04:33.873Z,4.17
2019-04-20T03:07:09.254Z,3.63
2019-04-20T03:09:44.240Z,3.50
2019-04-20T03:12:24.956Z,3.33
2019-04-20T03:14:44.729Z,2.90
2019-04-20T03:17:22.251Z,3.60
2019-04-20T03:19:44.563Z,3.53
2019-04-20T03:22:29.168Z,3.70
2019-04-20T03:24:54.131Z,3.87
2019-04-20T03:27:24.825Z,2.83
2019-04-20T03:30:03.822Z,3.37
2019-04-20T03:32:57.354Z,3.10
2019-04-20T03:37:55.415Z,4.10
2019-04-20T03:40:04.399Z,3.00
2019-04-20T03:42:20.204Z,3.90
2019-04-20T03:44:57.072Z,4.00
2019-04-20T03:47:31.457Z,2.70
2019-04-20T03:50:18.030Z,3.00
2019-04-20T03:52:58.402Z,3.80
2019-04-20T03:55:39.414Z,4.20
2019-04-20T03:58:24.277Z,3.87
2019-04-20T04:01:03.905Z,3.72
2019-04-20T04:04:04.236Z,3.60
2019-04-20T04:06:23.250Z,3.00
2019-04-20T04:08:58.697Z,3.55
2019-04-20T04:11:32.673Z,3.50
2019-04-20T04:13:45.993Z,4.03
2019-04-20T04:16:19.800Z,4.22
2019-04-20T04:18:58.621Z,4.35
2019-04-20T04:21:35.535Z,4.20
2019-04-20T04:24:07.321Z,3.70
2019-04-20T04:26:39.484Z,4.55
2019-04-20T04:29:23.070Z,4.60
2019-04-20T04:31:55.456Z,4.28
2019-04-20T04:34:19.035Z,3.80
2019-04-20T04:36:55.716Z,3.58
2019-04-20T04:39:27.741Z,4.10
2019-04-20T04:42:06.318Z,4.03
2019-04-20T04:44:19.227Z,3.95
2019-04-20T04:46:44.608Z,4.23
2019-04-20T04:49:18.606Z,3.75
2019-04-20T04:51:50.382Z,3.65
2019-04-20T04:54:22.020Z,4.40
2019-04-20T04:56:44.296Z,4.55
2019-04-20T04:59:14.935Z,3.97
2019-04-20T05:01:48.871Z,4.45
2019-04-20T05:04:40.043Z,4.07
2019-04-20T05:07:05.011Z,4.47
2019-04-20T05:09:22.665Z,4.53
2019-04-20T05:12:02.075Z,3.70
2019-04-20T05:14:36.269Z,3.47
2019-04-20T05:17:11.467Z,4.60
2019-04-20T05:19:47.862Z,4.63
2019-04-20T05:22:20.555Z,4.05
2019-04-20T05:24:48.121Z,4.17
2019-04-20T05:27:34.783Z,4.37
2019-04-20T05:29:46.724Z,4.47
2019-04-20T05:32:24.864Z,4.20
2019-04-20T05:35:10.954Z,4.77
2019-04-20T05:37:51.453Z,4.17
2019-04-20T05:40:18.998Z,4.50
2019-04-20T05:42:49.993Z,4.50
2019-04-20T05:45:18.114Z,3.87
2019-04-20T05:47:48.416Z,3.53
2019-04-20T05:50:23.262Z,4.50
2019-04-20T05:52:58.305Z,4.00
2019-04-20T05:55:31.894Z,3.90
2019-04-20T05:58:01.956Z,3.80
2019-04-20T06:00:33.863Z,4.20
2019-04-20T06:03:00.797Z,4.47
2019-04-20T06:05:36.732Z,4.50
2019-04-20T06:08:09.066Z,4.30
2019-04-20T06:10:43.049Z,3.67
2019-04-20T06:13:11.397Z,4.30
2019-04-20T06:15:46.606Z,4.70
2019-04-20T06:18:21.151Z,3.83
2019-04-20T06:21:07.152Z,4.17
2019-04-20T06:23:53.211Z,4.20
2019-04-20T06:28:47.286Z,4.23
2019-04-20T06:31:28.482Z,4.10
2019-04-20T06:34:30.340Z,3.60
2019-04-20T06:44:32.053Z,4.23
2019-04-20T06:47:03.054Z,3.70
2019-04-20T06:49:32.959Z,3.63
2019-04-20T06:55:08.751Z,3.40
2019-04-20T06:57:40.702Z,3.93
2019-04-20T07:02:44.204Z,3.27
2019-04-20T07:05:22.338Z,3.30
2019-04-20T07:07:47.620Z,3.23
2019-04-20T07:10:18.266Z,3.20
2019-04-20T07:12:48.089Z,3.53
2019-04-20T07:15:21.372Z,4.07
2019-04-20T07:17:57.257Z,3.17
2019-04-20T07:20:27.845Z,3.47
2019-04-20T07:25:39.050Z,3.40
2019-04-20T07:28:05.856Z,3.33
2019-04-20T07:30:40.354Z,2.60
2019-04-20T07:33:08.803Z,3.10
2019-04-20T07:35:40.055Z,3.33
2019-04-20T07:38:27.926Z,2.90
2019-04-20T07:40:40.118Z,2.70
2019-04-20T07:43:07.926Z,3.57
2019-04-20T07:45:45.561Z,3.10
2019-04-20T07:48:30.858Z,3.43
2019-04-20T07:50:40.968Z,3.23
2019-04-20T07:53:18.798Z,2.93
2019-04-20T07:55:55.136Z,3.00
2019-04-20T07:58:15.533Z,2.90
2019-04-20T08:01:02.537Z,2.90
2019-04-20T08:03:33.649Z,2.90
2019-04-20T08:05:53.845Z,3.07
2019-04-20T08:08:28.159Z,3.30
2019-04-20T08:11:03.972Z,2.83
2019-04-20T08:13:45.707Z,4.97
2019-04-20T08:16:06.599Z,3.47
2019-04-20T08:18:44.596Z,2.67
2019-04-20T08:21:09.853Z,2.87
2019-04-20T08:23:45.918Z,3.20
2019-04-20T08:26:04.395Z,3.30
2019-04-20T08:28:36.108Z,2.87
2019-04-20T08:31:24.367Z,3.43
2019-04-20T08:34:17.261Z,3.10
2019-04-20T08:36:44.224Z,3.07
2019-04-20T08:39:26.910Z,3.00
2019-04-20T08:41:48.338Z,3.13
2019-04-20T08:44:33.774Z,3.10
2019-04-20T08:46:53.335Z,3.37
2019-04-20T08:49:26.433Z,3.40
2019-04-20T08:51:55.745Z,3.60
2019-04-20T08:54:18.027Z,3.10
2019-04-20T08:56:39.386Z,3.10
2019-04-20T08:59:02.250Z,3.00
2019-04-20T09:01:35.270Z,2.97
2019-04-20T09:04:09.763Z,2.83
2019-04-20T09:06:50.726Z,3.33
2019-04-20T09:09:40.334Z,2.37
2019-04-20T09:11:54.294Z,3.10
2019-04-20T09:14:21.479Z,2.93
2019-04-20T09:17:11.464Z,2.73
2019-04-20T09:19:54.314Z,3.03
2019-04-20T09:22:42.860Z,2.90
2019-04-20T09:25:35.296Z,3.07
2019-04-20T09:27:42.885Z,3.60
2019-04-20T09:30:21.617Z,2.87
2019-04-20T09:36:06.508Z,3.20
2019-04-20T09:38:36.637Z,3.20
2019-04-20T09:41:09.747Z,3.03
2019-04-20T09:43:38.991Z,2.60
2019-04-20T09:46:10.144Z,2.67
2019-04-20T09:48:48.503Z,3.60
2019-04-20T09:51:33.496Z,3.53
2019-04-20T09:53:58.325Z,3.17
2019-04-20T09:56:28.101Z,3.10
2019-04-20T09:59:09.899Z,3.10
2019-04-20T10:01:29.239Z,2.80
2019-04-20T10:03:50.177Z,3.10
2019-04-20T10:06:24.773Z,2.97
2019-04-20T10:08:56.349Z,2.83
2019-04-20T10:11:23.620Z,3.13
2019-04-20T10:13:54.406Z,3.13
2019-04-20T10:16:24.153Z,2.90
2019-04-20T10:18:55.263Z,3.27
2019-04-20T10:21:25.728Z,2.50
2019-04-20T10:23:56.607Z,3.00
2019-04-20T10:26:27.016Z,2.90
2019-04-20T10:28:57.471Z,2.87
2019-04-20T10:31:28.500Z,2.80
2019-04-20T10:33:59.445Z,2.60
2019-04-20T10:36:37.559Z,2.20
2019-04-20T10:39:10.894Z,2.30
2019-04-20T10:41:49.179Z,2.40
2019-04-20T10:44:12.348Z,2.60
2019-04-20T10:46:42.887Z,2.70
2019-04-20T10:49:13.300Z,2.30
2019-04-20T10:51:43.938Z,2.60
2019-04-20T10:54:14.207Z,2.50
2019-04-20T10:56:43.949Z,2.60
2019-04-20T10:59:13.840Z,2.50
2019-04-20T11:01:43.610Z,2.23
2019-04-20T11:04:14.612Z,2.63
2019-04-20T11:06:44.824Z,2.70
2019-04-20T11:09:14.786Z,2.50
2019-04-20T11:11:44.483Z,2.77
2019-04-20T11:14:24.242Z,3.03
2019-04-20T11:16:46.675Z,2.83
2019-04-20T11:19:16.430Z,2.70
2019-04-20T11:21:46.365Z,2.53
2019-04-20T11:24:16.411Z,2.50
2019-04-20T11:26:46.810Z,2.40
2019-04-20T11:29:18.168Z,2.70
2019-04-20T11:31:51.475Z,2.97
2019-04-20T11:34:23.469Z,3.10
2019-04-20T11:36:50.926Z,2.80
2019-04-20T11:39:20.916Z,3.13
2019-04-20T11:41:51.751Z,2.23
2019-04-20T11:44:21.569Z,2.43
2019-04-20T11:46:52.482Z,2.50
2019-04-20T11:49:23.720Z,2.73
2019-04-20T11:51:53.411Z,2.50
2019-04-20T11:54:24.340Z,3.10
2019-04-20T11:56:55.503Z,3.13
2019-04-20T11:59:25.446Z,2.73
2019-04-20T12:02:01.132Z,2.60
2019-04-20T12:04:40.428Z,2.63
2019-04-20T12:07:01.253Z,2.60
2019-04-20T12:09:31.484Z,2.83
2019-04-20T12:12:11.880Z,3.40
2019-04-20T12:14:32.755Z,3.27
2019-04-20T12:17:03.668Z,3.30
2019-04-20T12:19:36.116Z,3.10
2019-04-20T12:22:05.652Z,3.00
2019-04-20T12:24:36.237Z,3.80
2019-04-20T12:27:06.984Z,3.43
2019-04-20T12:29:36.742Z,3.77
2019-04-20T12:32:08.591Z,3.23
2019-04-20T12:34:39.078Z,3.37
2019-04-20T12:37:11.242Z,3.73
2019-04-20T12:39:41.387Z,3.03
2019-04-20T12:42:13.044Z,3.40
2019-04-20T12:44:43.799Z,3.17
2019-04-20T12:47:14.117Z,3.00
2019-04-20T12:49:43.827Z,3.30
2019-04-20T12:52:14.404Z,3.73
2019-04-20T12:54:46.182Z,4.10
2019-04-20T12:57:16.521Z,3.60
2019-04-20T12:59:47.860Z,3.67
2019-04-20T13:02:17.706Z,3.50
2019-04-20T13:04:47.434Z,3.83
2019-04-20T13:07:17.708Z,3.60
2019-04-20T13:09:50.879Z,3.63
2019-04-20T13:12:42.571Z,3.60
2019-04-20T13:15:29.300Z,3.93
2019-04-20T13:18:01.109Z,3.87
2019-04-20T13:20:32.165Z,3.77
2019-04-20T13:23:03.857Z,3.43
2019-04-20T13:25:33.300Z,3.43
2019-04-20T13:28:03.286Z,3.70
2019-04-20T13:30:33.262Z,3.30
2019-04-20T13:33:03.875Z,3.80
2019-04-20T13:35:34.505Z,3.80
2019-04-20T13:38:04.568Z,4.00
2019-04-20T13:40:35.661Z,3.80
2019-04-20T13:43:05.882Z,4.37
2019-04-20T13:45:37.067Z,4.40
2019-04-20T13:48:06.910Z,3.77
2019-04-20T13:50:38.044Z,4.13
2019-04-20T13:53:08.293Z,3.80
2019-04-20T13:55:40.428Z,3.90
2019-04-20T13:58:11.921Z,3.90
2019-04-20T14:00:54.076Z,3.90
2019-04-20T14:03:27.014Z,3.80
2019-04-20T14:05:56.643Z,4.10
2019-04-20T14:08:27.383Z,3.63
2019-04-20T14:10:57.571Z,3.93
2019-04-20T14:13:35.233Z,3.67
2019-04-20T14:16:00.881Z,3.83
2019-04-20T14:18:31.160Z,3.47
2019-04-20T14:21:02.371Z,3.63
2019-04-20T14:23:32.835Z,3.70
2019-04-20T14:26:03.092Z,3.53
2019-04-20T14:28:33.269Z,4.07
2019-04-20T14:31:03.792Z,3.80
2019-04-20T14:33:34.850Z,3.60
2019-04-20T14:36:05.184Z,3.47
2019-04-20T14:38:36.173Z,3.30
2019-04-20T14:41:08.463Z,3.83
2019-04-20T14:43:39.796Z,3.53
2019-04-20T14:46:10.627Z,3.50
2019-04-20T14:48:40.741Z,3.70
2019-04-20T14:51:11.756Z,4.10
2019-04-20T14:53:43.245Z,3.73
2019-04-20T14:56:13.575Z,4.00
2019-04-20T14:58:45.305Z,3.53
2019-04-20T15:01:22.782Z,3.63
2019-04-20T15:04:00.754Z,3.13
2019-04-20T15:06:25.439Z,3.93
2019-04-20T15:08:56.680Z,3.33
2019-04-20T15:11:27.136Z,3.07
2019-04-20T15:13:56.864Z,3.20
2019-04-20T15:16:26.632Z,3.07
2019-04-20T15:18:58.143Z,3.20
2019-04-20T15:21:29.492Z,3.77
2019-04-20T15:24:03.683Z,3.23
2019-04-20T15:26:34.280Z,3.13
2019-04-20T15:29:04.491Z,3.63
2019-04-20T15:31:34.378Z,3.03
2019-04-20T15:34:04.570Z,3.00
2019-04-20T15:36:36.169Z,3.10
2019-04-20T15:39:07.404Z,2.60
2019-04-20T15:41:39.079Z,2.70
2019-04-20T15:44:09.248Z,3.40
2019-04-20T15:46:40.040Z,3.40
2019-04-20T15:49:10.594Z,3.17
2019-04-20T15:51:41.729Z,3.00
2019-04-20T15:54:11.617Z,3.40
2019-04-20T15:56:42.510Z,2.83
2019-04-20T15:59:12.720Z,3.03
2019-04-20T16:01:47.193Z,2.87
2019-04-20T16:04:39.021Z,3.33
2019-04-20T16:07:08.424Z,2.83
2019-04-20T16:09:37.979Z,2.80
2019-04-20T16:12:08.907Z,3.00
2019-04-20T16:14:39.527Z,2.93
2019-04-20T16:17:12.286Z,3.50
2019-04-20T16:19:51.400Z,2.90
2019-04-20T16:22:13.464Z,2.80
2019-04-20T16:24:54.000Z,3.00
2019-04-20T16:27:25.520Z,2.90
2019-04-20T16:29:55.746Z,3.10
2019-04-20T16:32:26.732Z,3.20
2019-04-20T16:34:56.646Z,3.50
2019-04-20T16:37:26.520Z,2.93
2019-04-20T16:39:56.658Z,3.40
2019-04-20T16:42:26.725Z,4.07
2019-04-20T16:44:57.007Z,4.10
2019-04-20T16:47:28.062Z,3.77
2019-04-20T16:49:59.121Z,3.90
2019-04-20T16:52:29.158Z,3.60
2019-04-20T16:54:59.659Z,4.07
2019-04-20T16:57:29.828Z,3.67
2019-04-20T17:00:01.276Z,3.20
2019-04-20T17:02:34.032Z,4.77
2019-04-20T17:05:05.090Z,3.03
2019-04-20T17:07:37.299Z,3.30
2019-04-20T17:10:09.681Z,3.03
2019-04-20T17:12:39.929Z,3.83
2019-04-20T17:15:09.939Z,4.07
2019-04-20T17:17:39.934Z,3.50
2019-04-20T17:20:11.714Z,3.00
2019-04-20T17:22:42.205Z,3.30
2019-04-20T17:25:12.350Z,3.00
2019-04-20T17:27:44.715Z,3.10
2019-04-20T17:30:27.165Z,3.53
2019-04-20T17:33:10.474Z,2.70
2019-04-20T17:38:11.411Z,2.70
2019-04-20T17:41:01.284Z,2.87
2019-04-20T17:43:23.264Z,3.00
2019-04-20T17:45:55.705Z,2.90
2019-04-20T17:48:29.758Z,2.47
2019-04-20T17:51:13.961Z,2.73
2019-04-20T17:53:39.472Z,2.50
2019-04-20T17:56:04.899Z,3.10
2019-04-20T17:58:38.286Z,2.50
2019-04-20T18:01:25.550Z,2.60
2019-04-20T18:04:39.770Z,2.40
2019-04-20T18:06:39.479Z,2.50
2019-04-20T18:09:03.104Z,3.07
2019-04-20T18:11:27.015Z,2.90
2019-04-20T18:14:04.267Z,2.67
2019-04-20T18:16:50.846Z,2.57
2019-04-20T18:22:09.940Z,2.70
2019-04-20T18:25:01.821Z,3.20
2019-04-20T18:27:32.124Z,2.60
2019-04-20T18:30:01.463Z,2.93
2019-04-20T18:32:33.876Z,2.67
2019-04-20T18:35:10.231Z,3.10
2019-04-20T18:37:43.392Z,2.67
2019-04-20T18:40:15.099Z,2.73
2019-04-20T18:42:45.280Z,3.10
2019-04-20T18:45:32.532Z,2.73
2019-04-20T18:48:04.729Z,2.67
2019-04-20T18:50:23.192Z,2.90
2019-04-20T18:52:49.799Z,3.20
2019-04-20T18:55:29.070Z,2.90
2019-04-20T18:57:51.140Z,2.90
2019-04-20T19:00:27.962Z,3.23
2019-04-20T19:02:56.072Z,2.40
2019-04-20T19:05:26.066Z,3.10
2019-04-20T19:08:01.419Z,2.80
2019-04-20T19:10:32.646Z,2.50
2019-04-20T19:13:06.263Z,2.90
2019-04-20T19:16:03.717Z,2.73
2019-04-20T19:18:49.408Z,2.90
2019-04-20T19:21:09.221Z,2.60
2019-04-20T19:23:48.625Z,2.73
2019-04-20T19:26:16.150Z,2.27
2019-04-20T19:28:46.949Z,2.50
2019-04-20T19:31:30.756Z,3.70
2019-04-20T19:34:07.791Z,2.73
2019-04-20T19:36:27.825Z,2.93
2019-04-20T19:39:03.913Z,2.67
2019-04-20T19:41:32.117Z,2.63
2019-04-20T19:44:05.289Z,3.37
2019-04-20T19:49:04.033Z,2.70
2019-04-20T19:51:46.771Z,3.03
2019-04-20T19:54:17.946Z,3.23
2019-04-20T19:56:42.458Z,2.73
2019-04-20T19:59:11.142Z,3.03
2019-04-20T20:01:31.691Z,2.60
2019-04-20T20:04:04.609Z,2.53
2019-04-20T20:06:39.159Z,2.50
2019-04-20T20:09:11.015Z,3.43
2019-04-20T20:11:42.866Z,3.30
2019-04-20T20:14:13.293Z,3.77
2019-04-20T20:17:06.821Z,3.73
2019-04-20T20:19:29.545Z,4.40
2019-04-20T20:21:59.062Z,3.83
2019-04-20T20:24:18.007Z,5.27
2019-04-20T20:26:53.389Z,5.20
2019-04-20T20:29:28.248Z,3.53
2019-04-20T20:32:05.196Z,4.27
2019-04-20T20:34:31.133Z,4.73
2019-04-20T20:37:00.578Z,4.40
2019-04-20T20:39:29.529Z,4.93
2019-04-20T20:42:10.839Z,3.93
2019-04-20T20:44:38.948Z,4.40
2019-04-20T20:47:12.863Z,4.70
2019-04-20T20:50:00.078Z,3.63
2019-04-20T20:52:21.986Z,3.83
2019-04-20T20:54:44.877Z,3.50
2019-04-20T20:57:13.465Z,3.00
2019-04-20T20:59:50.812Z,3.47
2019-04-20T21:02:19.309Z,3.10
2019-04-20T21:04:41.734Z,3.00
2019-04-20T21:07:12.893Z,3.37
2019-04-20T21:09:42.787Z,3.27
2019-04-20T21:12:15.881Z,3.03
2019-04-20T21:14:45.480Z,3.27
2019-04-20T21:17:18.292Z,3.47
2019-04-20T21:20:05.322Z,3.40
2019-04-20T21:22:33.795Z,2.97
2019-04-20T21:25:01.026Z,2.83
2019-04-20T21:27:32.896Z,3.57
2019-04-20T21:30:03.945Z,2.50
2019-04-20T21:32:43.917Z,3.40
2019-04-20T21:35:11.048Z,3.20
2019-04-20T21:37:43.399Z,2.80
2019-04-20T21:40:22.779Z,3.40
2019-04-20T21:42:49.737Z,2.70
2019-04-20T21:45:19.500Z,2.53
2019-04-20T21:47:46.414Z,2.73
2019-04-20T21:50:31.228Z,3.00
2019-04-20T21:52:52.206Z,2.53
2019-04-20T21:55:18.591Z,2.53
2019-04-20T21:57:51.897Z,3.03
2019-04-20T22:00:42.487Z,2.37
2019-04-20T22:03:11.835Z,2.70
2019-04-20T22:05:42.344Z,2.83
2019-04-20T22:08:15.927Z,3.23
2019-04-20T22:10:44.843Z,2.60
2019-04-20T22:13:19.660Z,3.23
2019-04-20T22:15:54.519Z,2.40
2019-04-20T22:18:21.523Z,2.83
2019-04-20T22:21:02.273Z,3.10
2019-04-20T22:23:40.697Z,2.47
2019-04-20T22:26:07.844Z,2.80
2019-04-20T22:28:24.298Z,2.67
2019-04-20T22:30:54.181Z,2.93
2019-04-20T22:33:38.130Z,2.87
2019-04-20T22:36:09.182Z,2.60
2019-04-20T22:38:58.346Z,3.17
2019-04-20T22:41:27.879Z,2.70
2019-04-20T22:44:02.731Z,3.07
2019-04-20T22:46:33.701Z,2.53
2019-04-20T22:49:22.265Z,2.93
2019-04-20T22:51:46.211Z,2.87
2019-04-20T22:54:21.617Z,2.60
2019-04-20T22:56:47.320Z,2.97
2019-04-20T22:59:12.809Z,3.57
2019-04-20T23:01:46.487Z,2.60
2019-04-20T23:04:10.859Z,3.23
2019-04-20T23:06:46.237Z,3.13
2019-04-20T23:09:14.720Z,3.10
2019-04-20T23:11:45.066Z,2.87
2019-04-20T23:14:16.257Z,2.77
2019-04-20T23:16:50.608Z,3.20
2019-04-20T23:19:30.038Z,2.73
2019-04-20T23:21:57.606Z,3.20
2019-04-20T23:24:21.890Z,2.80
2019-04-20T23:26:53.072Z,2.23
2019-04-20T23:29:27.133Z,4.13
2019-04-20T23:31:59.692Z,3.27
2019-04-20T23:34:30.178Z,3.27
2019-04-20T23:36:57.179Z,3.33
2019-04-20T23:39:32.310Z,3.17
2019-04-20T23:42:02.291Z,3.10
2019-04-20T23:44:31.545Z,2.97
2019-04-20T23:47:11.152Z,3.40
2019-04-20T23:49:54.491Z,3.27
2019-04-20T23:52:32.422Z,3.10
2019-04-20T23:54:50.316Z,2.80
2019-04-20T23:57:11.670Z,3.20
2019-04-20T23:59:44.730Z,3.07
